sensor_id;sensor_type;location;lat;lon;timestamp;P1;durP1;ratioP1;P2;durP2;ratioP2
5774;SDS011;2913;51.120;6.772;2023-12-07T00:01:10;610.33;;;237.02;;
5774;SDS011;2913;51.120;6.772;2023-12-07T00:03:40;560.85;;;214.25;;
5774;SDS011;2913;51.120;6.772;2023-12-07T00:06:06;513.38;;;188.65;;
5774;SDS011;2913;51.120;6.772;2023-12-07T00:08:31;489.27;;;173.35;;
5774;SDS011;2913;51.120;6.772;2023-12-07T00:10:57;498.35;;;183.20;;
5774;SDS011;2913;51.120;6.772;2023-12-07T00:13:22;410.73;;;151.73;;
5774;SDS011;2913;51.120;6.772;2023-12-07T00:15:48;301.58;;;104.05;;
5774;SDS011;2913;51.120;6.772;2023-12-07T00:18:14;248.77;;;89.38;;
5774;SDS011;2913;51.120;6.772;2023-12-07T00:20:39;400.60;;;142.10;;
5774;SDS011;2913;51.120;6.772;2023-12-07T00:23:05;196.27;;;72.63;;
5774;SDS011;2913;51.120;6.772;2023-12-07T00:25:30;148.95;;;55.67;;
5774;SDS011;2913;51.120;6.772;2023-12-07T00:27:56;319.83;;;107.78;;
5774;SDS011;2913;51.120;6.772;2023-12-07T00:30:22;22.77;;;9.23;;
5774;SDS011;2913;51.120;6.772;2023-12-07T00:32:48;36.85;;;12.25;;
5774;SDS011;2913;51.120;6.772;2023-12-07T00:35:15;20.05;;;9.77;;
5774;SDS011;2913;51.120;6.772;2023-12-07T00:37:41;27.50;;;10.60;;
5774;SDS011;2913;51.120;6.772;2023-12-07T00:40:07;21.35;;;9.93;;
5774;SDS011;2913;51.120;6.772;2023-12-07T00:42:33;36.30;;;11.25;;
5774;SDS011;2913;51.120;6.772;2023-12-07T00:45:01;340.73;;;119.78;;
5774;SDS011;2913;51.120;6.772;2023-12-07T00:47:27;137.43;;;61.92;;
5774;SDS011;2913;51.120;6.772;2023-12-07T00:49:53;446.10;;;150.40;;
5774;SDS011;2913;51.120;6.772;2023-12-07T00:52:18;350.52;;;119.65;;
5774;SDS011;2913;51.120;6.772;2023-12-07T00:54:44;30.00;;;10.07;;
5774;SDS011;2913;51.120;6.772;2023-12-07T00:57:14;26.27;;;9.45;;
5774;SDS011;2913;51.120;6.772;2023-12-07T00:59:40;23.50;;;9.73;;
5774;SDS011;2913;51.120;6.772;2023-12-07T01:02:06;369.50;;;127.50;;
5774;SDS011;2913;51.120;6.772;2023-12-07T01:04:32;423.63;;;141.80;;
5774;SDS011;2913;51.120;6.772;2023-12-07T01:06:58;502.02;;;173.85;;
5774;SDS011;2913;51.120;6.772;2023-12-07T01:09:24;78.68;;;45.58;;
5774;SDS011;2913;51.120;6.772;2023-12-07T01:11:50;458.33;;;153.65;;
5774;SDS011;2913;51.120;6.772;2023-12-07T01:14:18;334.83;;;110.20;;
5774;SDS011;2913;51.120;6.772;2023-12-07T01:16:44;390.60;;;129.50;;
5774;SDS011;2913;51.120;6.772;2023-12-07T01:19:10;592.28;;;217.32;;
5774;SDS011;2913;51.120;6.772;2023-12-07T01:21:41;572.97;;;203.25;;
5774;SDS011;2913;51.120;6.772;2023-12-07T01:24:07;663.83;;;247.30;;
5774;SDS011;2913;51.120;6.772;2023-12-07T01:26:35;596.25;;;218.52;;
5774;SDS011;2913;51.120;6.772;2023-12-07T01:29:05;686.55;;;267.35;;
5774;SDS011;2913;51.120;6.772;2023-12-07T01:31:33;670.53;;;259.92;;
5774;SDS011;2913;51.120;6.772;2023-12-07T01:33:59;712.75;;;281.42;;
5774;SDS011;2913;51.120;6.772;2023-12-07T01:36:27;574.88;;;219.05;;
5774;SDS011;2913;51.120;6.772;2023-12-07T01:38:52;575.38;;;221.13;;
5774;SDS011;2913;51.120;6.772;2023-12-07T01:41:20;578.15;;;221.25;;
5774;SDS011;2913;51.120;6.772;2023-12-07T01:43:46;558.20;;;211.27;;
5774;SDS011;2913;51.120;6.772;2023-12-07T01:46:11;560.15;;;212.27;;
5774;SDS011;2913;51.120;6.772;2023-12-07T01:48:37;538.20;;;196.50;;
5774;SDS011;2913;51.120;6.772;2023-12-07T01:51:05;559.05;;;210.32;;
5774;SDS011;2913;51.120;6.772;2023-12-07T01:53:35;555.03;;;207.45;;
5774;SDS011;2913;51.120;6.772;2023-12-07T01:56:09;566.65;;;212.65;;
5774;SDS011;2913;51.120;6.772;2023-12-07T01:58:35;570.20;;;211.38;;
5774;SDS011;2913;51.120;6.772;2023-12-07T02:01:02;553.25;;;200.00;;
5774;SDS011;2913;51.120;6.772;2023-12-07T02:03:29;592.30;;;220.40;;
5774;SDS011;2913;51.120;6.772;2023-12-07T02:05:55;526.55;;;188.45;;
5774;SDS011;2913;51.120;6.772;2023-12-07T02:08:23;418.02;;;141.40;;
5774;SDS011;2913;51.120;6.772;2023-12-07T02:10:51;483.98;;;166.60;;
5774;SDS011;2913;51.120;6.772;2023-12-07T02:13:20;476.80;;;163.55;;
5774;SDS011;2913;51.120;6.772;2023-12-07T02:15:46;529.30;;;189.68;;
5774;SDS011;2913;51.120;6.772;2023-12-07T02:20:49;461.75;;;157.85;;
5774;SDS011;2913;51.120;6.772;2023-12-07T02:23:19;316.38;;;112.55;;
5774;SDS011;2913;51.120;6.772;2023-12-07T02:25:48;494.95;;;173.95;;
5774;SDS011;2913;51.120;6.772;2023-12-07T02:28:17;436.05;;;147.93;;
5774;SDS011;2913;51.120;6.772;2023-12-07T02:30:42;435.73;;;148.50;;
5774;SDS011;2913;51.120;6.772;2023-12-07T02:33:08;472.80;;;161.82;;
5774;SDS011;2913;51.120;6.772;2023-12-07T02:35:35;403.73;;;134.55;;
5774;SDS011;2913;51.120;6.772;2023-12-07T02:38:07;492.52;;;171.95;;
5774;SDS011;2913;51.120;6.772;2023-12-07T02:40:33;475.30;;;163.45;;
5774;SDS011;2913;51.120;6.772;2023-12-07T02:43:00;459.40;;;156.52;;
5774;SDS011;2913;51.120;6.772;2023-12-07T02:45:28;393.27;;;131.40;;
5774;SDS011;2913;51.120;6.772;2023-12-07T02:47:54;498.33;;;174.85;;
5774;SDS011;2913;51.120;6.772;2023-12-07T02:50:19;526.63;;;189.50;;
5774;SDS011;2913;51.120;6.772;2023-12-07T02:52:45;503.98;;;181.23;;
5774;SDS011;2913;51.120;6.772;2023-12-07T02:55:11;534.17;;;194.05;;
5774;SDS011;2913;51.120;6.772;2023-12-07T02:57:37;478.58;;;168.18;;
5774;SDS011;2913;51.120;6.772;2023-12-07T03:00:05;508.42;;;181.80;;
5774;SDS011;2913;51.120;6.772;2023-12-07T03:02:40;330.17;;;116.68;;
5774;SDS011;2913;51.120;6.772;2023-12-07T03:05:06;294.27;;;106.43;;
5774;SDS011;2913;51.120;6.772;2023-12-07T03:07:33;441.63;;;150.48;;
5774;SDS011;2913;51.120;6.772;2023-12-07T03:09:59;497.80;;;179.98;;
5774;SDS011;2913;51.120;6.772;2023-12-07T03:12:25;478.42;;;171.27;;
5774;SDS011;2913;51.120;6.772;2023-12-07T03:14:53;399.92;;;135.32;;
5774;SDS011;2913;51.120;6.772;2023-12-07T03:17:21;525.55;;;193.38;;
5774;SDS011;2913;51.120;6.772;2023-12-07T03:19:46;157.00;;;58.03;;
5774;SDS011;2913;51.120;6.772;2023-12-07T03:22:14;473.42;;;172.35;;
5774;SDS011;2913;51.120;6.772;2023-12-07T03:24:49;595.10;;;229.55;;
5774;SDS011;2913;51.120;6.772;2023-12-07T03:27:16;617.22;;;242.48;;
5774;SDS011;2913;51.120;6.772;2023-12-07T03:29:41;537.90;;;206.20;;
5774;SDS011;2913;51.120;6.772;2023-12-07T03:32:11;566.20;;;217.85;;
5774;SDS011;2913;51.120;6.772;2023-12-07T03:34:37;569.65;;;223.27;;
5774;SDS011;2913;51.120;6.772;2023-12-07T03:37:03;588.95;;;230.07;;
5774;SDS011;2913;51.120;6.772;2023-12-07T03:39:29;24.50;;;10.73;;
5774;SDS011;2913;51.120;6.772;2023-12-07T03:41:56;27.48;;;11.95;;
5774;SDS011;2913;51.120;6.772;2023-12-07T03:44:22;31.02;;;10.85;;
5774;SDS011;2913;51.120;6.772;2023-12-07T03:46:47;28.98;;;11.68;;
5774;SDS011;2913;51.120;6.772;2023-12-07T03:49:15;27.88;;;12.35;;
5774;SDS011;2913;51.120;6.772;2023-12-07T03:51:41;25.88;;;11.10;;
5774;SDS011;2913;51.120;6.772;2023-12-07T03:54:07;28.58;;;11.52;;
5774;SDS011;2913;51.120;6.772;2023-12-07T03:56:34;23.45;;;11.02;;
5774;SDS011;2913;51.120;6.772;2023-12-07T03:59:00;28.48;;;10.18;;
5774;SDS011;2913;51.120;6.772;2023-12-07T04:01:28;23.33;;;10.75;;
5774;SDS011;2913;51.120;6.772;2023-12-07T04:03:55;22.20;;;10.30;;
5774;SDS011;2913;51.120;6.772;2023-12-07T04:06:23;22.70;;;9.82;;
5774;SDS011;2913;51.120;6.772;2023-12-07T04:08:52;18.40;;;8.90;;
5774;SDS011;2913;51.120;6.772;2023-12-07T04:11:17;24.70;;;9.35;;
5774;SDS011;2913;51.120;6.772;2023-12-07T04:13:43;22.65;;;9.98;;
5774;SDS011;2913;51.120;6.772;2023-12-07T04:16:10;36.50;;;12.52;;
5774;SDS011;2913;51.120;6.772;2023-12-07T04:18:38;29.67;;;11.10;;
5774;SDS011;2913;51.120;6.772;2023-12-07T04:21:03;21.50;;;10.00;;
5774;SDS011;2913;51.120;6.772;2023-12-07T04:23:33;22.88;;;10.40;;
5774;SDS011;2913;51.120;6.772;2023-12-07T04:25:58;29.98;;;11.65;;
5774;SDS011;2913;51.120;6.772;2023-12-07T04:28:26;31.42;;;13.45;;
5774;SDS011;2913;51.120;6.772;2023-12-07T04:30:52;30.25;;;12.90;;
5774;SDS011;2913;51.120;6.772;2023-12-07T04:33:18;28.40;;;13.15;;
5774;SDS011;2913;51.120;6.772;2023-12-07T04:35:43;31.90;;;13.10;;
5774;SDS011;2913;51.120;6.772;2023-12-07T04:38:09;34.65;;;13.77;;
5774;SDS011;2913;51.120;6.772;2023-12-07T04:40:36;31.95;;;12.23;;
5774;SDS011;2913;51.120;6.772;2023-12-07T04:43:02;32.58;;;13.52;;
5774;SDS011;2913;51.120;6.772;2023-12-07T04:45:28;34.30;;;12.93;;
5774;SDS011;2913;51.120;6.772;2023-12-07T04:47:54;32.83;;;13.63;;
5774;SDS011;2913;51.120;6.772;2023-12-07T04:50:19;26.98;;;12.48;;
5774;SDS011;2913;51.120;6.772;2023-12-07T04:52:45;36.78;;;13.82;;
5774;SDS011;2913;51.120;6.772;2023-12-07T04:55:10;35.58;;;13.57;;
5774;SDS011;2913;51.120;6.772;2023-12-07T04:57:36;31.95;;;13.25;;
5774;SDS011;2913;51.120;6.772;2023-12-07T05:00:02;27.00;;;12.07;;
5774;SDS011;2913;51.120;6.772;2023-12-07T05:02:31;28.90;;;12.73;;
5774;SDS011;2913;51.120;6.772;2023-12-07T05:04:57;26.08;;;12.73;;
5774;SDS011;2913;51.120;6.772;2023-12-07T05:07:23;35.22;;;13.80;;
5774;SDS011;2913;51.120;6.772;2023-12-07T05:09:49;29.60;;;12.77;;
5774;SDS011;2913;51.120;6.772;2023-12-07T05:12:19;29.05;;;12.48;;
5774;SDS011;2913;51.120;6.772;2023-12-07T05:14:44;32.42;;;13.57;;
5774;SDS011;2913;51.120;6.772;2023-12-07T05:17:10;29.00;;;12.80;;
5774;SDS011;2913;51.120;6.772;2023-12-07T05:19:36;32.47;;;14.07;;
5774;SDS011;2913;51.120;6.772;2023-12-07T05:22:08;35.15;;;13.80;;
5774;SDS011;2913;51.120;6.772;2023-12-07T05:24:36;36.03;;;13.77;;
5774;SDS011;2913;51.120;6.772;2023-12-07T05:27:01;32.15;;;12.63;;
5774;SDS011;2913;51.120;6.772;2023-12-07T05:29:29;33.45;;;12.88;;
5774;SDS011;2913;51.120;6.772;2023-12-07T05:31:55;30.63;;;13.50;;
5774;SDS011;2913;51.120;6.772;2023-12-07T05:34:21;34.38;;;13.90;;
5774;SDS011;2913;51.120;6.772;2023-12-07T05:36:46;34.08;;;13.80;;
5774;SDS011;2913;51.120;6.772;2023-12-07T05:39:14;32.17;;;14.05;;
5774;SDS011;2913;51.120;6.772;2023-12-07T05:41:42;35.35;;;13.98;;
5774;SDS011;2913;51.120;6.772;2023-12-07T05:44:11;33.05;;;13.50;;
5774;SDS011;2913;51.120;6.772;2023-12-07T05:46:37;30.33;;;13.13;;
5774;SDS011;2913;51.120;6.772;2023-12-07T05:49:09;27.52;;;12.65;;
5774;SDS011;2913;51.120;6.772;2023-12-07T05:51:37;30.13;;;12.48;;
5774;SDS011;2913;51.120;6.772;2023-12-07T05:54:03;28.38;;;12.35;;
5774;SDS011;2913;51.120;6.772;2023-12-07T05:56:29;34.30;;;12.82;;
5774;SDS011;2913;51.120;6.772;2023-12-07T05:58:56;26.55;;;12.60;;
5774;SDS011;2913;51.120;6.772;2023-12-07T06:01:22;25.38;;;12.85;;
5774;SDS011;2913;51.120;6.772;2023-12-07T06:03:47;25.73;;;12.48;;
5774;SDS011;2913;51.120;6.772;2023-12-07T06:06:13;28.50;;;12.63;;
5774;SDS011;2913;51.120;6.772;2023-12-07T06:08:38;30.77;;;12.38;;
5774;SDS011;2913;51.120;6.772;2023-12-07T06:11:05;26.58;;;12.02;;
5774;SDS011;2913;51.120;6.772;2023-12-07T06:13:33;27.67;;;12.20;;
5774;SDS011;2913;51.120;6.772;2023-12-07T06:15:58;35.03;;;12.38;;
5774;SDS011;2913;51.120;6.772;2023-12-07T06:18:30;32.10;;;12.32;;
5774;SDS011;2913;51.120;6.772;2023-12-07T06:20:55;22.60;;;10.98;;
5774;SDS011;2913;51.120;6.772;2023-12-07T06:23:23;27.05;;;11.75;;
5774;SDS011;2913;51.120;6.772;2023-12-07T06:25:49;28.60;;;11.45;;
5774;SDS011;2913;51.120;6.772;2023-12-07T06:28:14;24.08;;;10.50;;
5774;SDS011;2913;51.120;6.772;2023-12-07T06:30:40;22.77;;;10.45;;
5774;SDS011;2913;51.120;6.772;2023-12-07T06:33:06;25.35;;;10.27;;
5774;SDS011;2913;51.120;6.772;2023-12-07T06:35:34;28.02;;;11.55;;
5774;SDS011;2913;51.120;6.772;2023-12-07T06:38:02;21.08;;;10.00;;
5774;SDS011;2913;51.120;6.772;2023-12-07T06:40:28;25.48;;;10.70;;
5774;SDS011;2913;51.120;6.772;2023-12-07T06:42:53;37.33;;;10.77;;
5774;SDS011;2913;51.120;6.772;2023-12-07T06:45:19;25.02;;;9.93;;
5774;SDS011;2913;51.120;6.772;2023-12-07T06:47:44;23.05;;;9.18;;
5774;SDS011;2913;51.120;6.772;2023-12-07T06:50:10;20.58;;;9.63;;
5774;SDS011;2913;51.120;6.772;2023-12-07T06:52:36;20.27;;;9.18;;
5774;SDS011;2913;51.120;6.772;2023-12-07T06:55:02;21.55;;;8.88;;
5774;SDS011;2913;51.120;6.772;2023-12-07T06:57:28;23.85;;;9.40;;
5774;SDS011;2913;51.120;6.772;2023-12-07T06:59:54;18.75;;;8.43;;
5774;SDS011;2913;51.120;6.772;2023-12-07T07:02:20;20.98;;;9.40;;
5774;SDS011;2913;51.120;6.772;2023-12-07T07:04:45;17.40;;;7.75;;
5774;SDS011;2913;51.120;6.772;2023-12-07T07:07:14;14.50;;;7.10;;
5774;SDS011;2913;51.120;6.772;2023-12-07T07:09:40;20.08;;;8.07;;
5774;SDS011;2913;51.120;6.772;2023-12-07T07:12:06;20.38;;;8.90;;
5774;SDS011;2913;51.120;6.772;2023-12-07T07:14:33;17.98;;;7.93;;
5774;SDS011;2913;51.120;6.772;2023-12-07T07:16:59;21.20;;;7.65;;
5774;SDS011;2913;51.120;6.772;2023-12-07T07:19:25;23.00;;;8.25;;
5774;SDS011;2913;51.120;6.772;2023-12-07T07:21:53;24.05;;;8.52;;
5774;SDS011;2913;51.120;6.772;2023-12-07T07:24:18;18.73;;;7.85;;
5774;SDS011;2913;51.120;6.772;2023-12-07T07:26:48;22.40;;;7.93;;
5774;SDS011;2913;51.120;6.772;2023-12-07T07:29:14;19.70;;;7.18;;
5774;SDS011;2913;51.120;6.772;2023-12-07T07:31:42;16.48;;;7.90;;
5774;SDS011;2913;51.120;6.772;2023-12-07T07:34:07;20.92;;;8.57;;
5774;SDS011;2913;51.120;6.772;2023-12-07T07:36:34;19.50;;;7.75;;
5774;SDS011;2913;51.120;6.772;2023-12-07T07:38:59;16.63;;;6.82;;
5774;SDS011;2913;51.120;6.772;2023-12-07T07:41:25;16.70;;;8.48;;
5774;SDS011;2913;51.120;6.772;2023-12-07T07:43:50;18.20;;;7.88;;
5774;SDS011;2913;51.120;6.772;2023-12-07T07:46:16;17.27;;;6.18;;
5774;SDS011;2913;51.120;6.772;2023-12-07T07:48:44;18.17;;;8.40;;
5774;SDS011;2913;51.120;6.772;2023-12-07T07:51:14;22.65;;;8.32;;
5774;SDS011;2913;51.120;6.772;2023-12-07T07:53:40;18.35;;;8.63;;
5774;SDS011;2913;51.120;6.772;2023-12-07T07:56:05;22.02;;;9.30;;
5774;SDS011;2913;51.120;6.772;2023-12-07T07:58:31;17.02;;;8.23;;
5774;SDS011;2913;51.120;6.772;2023-12-07T08:00:57;24.70;;;9.73;;
5774;SDS011;2913;51.120;6.772;2023-12-07T08:03:22;18.13;;;8.52;;
5774;SDS011;2913;51.120;6.772;2023-12-07T08:05:48;22.50;;;8.73;;
5774;SDS011;2913;51.120;6.772;2023-12-07T08:08:14;22.20;;;8.73;;
5774;SDS011;2913;51.120;6.772;2023-12-07T08:10:42;19.08;;;8.23;;
5774;SDS011;2913;51.120;6.772;2023-12-07T08:13:07;19.65;;;8.38;;
5774;SDS011;2913;51.120;6.772;2023-12-07T08:15:33;17.08;;;7.07;;
5774;SDS011;2913;51.120;6.772;2023-12-07T08:17:59;16.85;;;7.32;;
5774;SDS011;2913;51.120;6.772;2023-12-07T08:20:25;15.45;;;5.85;;
5774;SDS011;2913;51.120;6.772;2023-12-07T08:22:51;24.40;;;7.43;;
5774;SDS011;2913;51.120;6.772;2023-12-07T08:25:17;16.73;;;7.60;;
5774;SDS011;2913;51.120;6.772;2023-12-07T08:27:46;22.33;;;8.57;;
5774;SDS011;2913;51.120;6.772;2023-12-07T08:30:14;23.25;;;9.13;;
5774;SDS011;2913;51.120;6.772;2023-12-07T08:32:39;20.90;;;7.88;;
5774;SDS011;2913;51.120;6.772;2023-12-07T08:35:05;16.08;;;7.53;;
5774;SDS011;2913;51.120;6.772;2023-12-07T08:37:33;22.75;;;8.13;;
5774;SDS011;2913;51.120;6.772;2023-12-07T08:40:01;21.52;;;9.13;;
5774;SDS011;2913;51.120;6.772;2023-12-07T08:42:27;22.15;;;6.97;;
5774;SDS011;2913;51.120;6.772;2023-12-07T08:44:53;16.58;;;6.95;;
5774;SDS011;2913;51.120;6.772;2023-12-07T08:47:18;24.50;;;8.93;;
5774;SDS011;2913;51.120;6.772;2023-12-07T08:49:47;10.52;;;4.28;;
5774;SDS011;2913;51.120;6.772;2023-12-07T08:52:12;11.63;;;5.65;;
5774;SDS011;2913;51.120;6.772;2023-12-07T08:54:38;10.95;;;4.55;;
5774;SDS011;2913;51.120;6.772;2023-12-07T08:57:03;16.80;;;7.43;;
5774;SDS011;2913;51.120;6.772;2023-12-07T08:59:29;13.05;;;5.45;;
5774;SDS011;2913;51.120;6.772;2023-12-07T09:01:58;11.57;;;5.32;;
5774;SDS011;2913;51.120;6.772;2023-12-07T09:04:23;10.07;;;4.97;;
5774;SDS011;2913;51.120;6.772;2023-12-07T09:06:49;10.82;;;5.30;;
5774;SDS011;2913;51.120;6.772;2023-12-07T09:09:17;10.82;;;4.93;;
5774;SDS011;2913;51.120;6.772;2023-12-07T09:11:44;16.02;;;6.88;;
5774;SDS011;2913;51.120;6.772;2023-12-07T09:14:09;14.32;;;6.13;;
5774;SDS011;2913;51.120;6.772;2023-12-07T09:16:46;6.85;;;3.45;;
5774;SDS011;2913;51.120;6.772;2023-12-07T09:19:12;9.57;;;5.45;;
5774;SDS011;2913;51.120;6.772;2023-12-07T09:21:39;19.35;;;8.57;;
5774;SDS011;2913;51.120;6.772;2023-12-07T09:24:07;33.70;;;8.57;;
5774;SDS011;2913;51.120;6.772;2023-12-07T09:26:33;8.60;;;4.47;;
5774;SDS011;2913;51.120;6.772;2023-12-07T09:29:02;12.48;;;5.70;;
5774;SDS011;2913;51.120;6.772;2023-12-07T09:31:30;24.63;;;9.27;;
5774;SDS011;2913;51.120;6.772;2023-12-07T09:33:58;20.67;;;8.75;;
5774;SDS011;2913;51.120;6.772;2023-12-07T09:36:24;16.75;;;6.68;;
5774;SDS011;2913;51.120;6.772;2023-12-07T09:38:53;20.05;;;8.27;;
5774;SDS011;2913;51.120;6.772;2023-12-07T09:41:18;8.25;;;4.13;;
5774;SDS011;2913;51.120;6.772;2023-12-07T09:43:47;18.23;;;6.38;;
5774;SDS011;2913;51.120;6.772;2023-12-07T09:46:13;9.40;;;4.93;;
5774;SDS011;2913;51.120;6.772;2023-12-07T09:48:40;15.73;;;7.97;;
5774;SDS011;2913;51.120;6.772;2023-12-07T09:51:12;16.63;;;8.35;;
5774;SDS011;2913;51.120;6.772;2023-12-07T09:53:40;18.52;;;8.07;;
5774;SDS011;2913;51.120;6.772;2023-12-07T09:56:08;16.15;;;7.10;;
5774;SDS011;2913;51.120;6.772;2023-12-07T09:58:34;15.05;;;7.25;;
5774;SDS011;2913;51.120;6.772;2023-12-07T10:01:00;22.13;;;9.80;;
5774;SDS011;2913;51.120;6.772;2023-12-07T10:03:26;13.82;;;6.78;;
5774;SDS011;2913;51.120;6.772;2023-12-07T10:05:58;18.20;;;7.38;;
5774;SDS011;2913;51.120;6.772;2023-12-07T10:08:34;13.15;;;5.90;;
5774;SDS011;2913;51.120;6.772;2023-12-07T10:11:03;24.55;;;10.88;;
5774;SDS011;2913;51.120;6.772;2023-12-07T10:13:30;20.00;;;9.48;;
5774;SDS011;2913;51.120;6.772;2023-12-07T10:16:06;11.10;;;5.65;;
5774;SDS011;2913;51.120;6.772;2023-12-07T10:18:32;25.45;;;9.73;;
5774;SDS011;2913;51.120;6.772;2023-12-07T10:20:58;24.50;;;9.32;;
5774;SDS011;2913;51.120;6.772;2023-12-07T10:23:23;16.77;;;7.10;;
5774;SDS011;2913;51.120;6.772;2023-12-07T10:25:51;7.05;;;4.40;;
5774;SDS011;2913;51.120;6.772;2023-12-07T10:28:17;11.45;;;5.70;;
5774;SDS011;2913;51.120;6.772;2023-12-07T10:30:44;11.27;;;5.68;;
5774;SDS011;2913;51.120;6.772;2023-12-07T10:33:12;8.80;;;4.60;;
5774;SDS011;2913;51.120;6.772;2023-12-07T10:35:41;10.13;;;4.07;;
5774;SDS011;2913;51.120;6.772;2023-12-07T10:38:09;9.38;;;3.35;;
5774;SDS011;2913;51.120;6.772;2023-12-07T10:40:37;16.13;;;7.07;;
5774;SDS011;2913;51.120;6.772;2023-12-07T10:43:06;6.90;;;4.28;;
5774;SDS011;2913;51.120;6.772;2023-12-07T10:45:33;23.10;;;9.93;;
5774;SDS011;2913;51.120;6.772;2023-12-07T10:48:03;8.20;;;4.20;;
5774;SDS011;2913;51.120;6.772;2023-12-07T10:50:35;25.05;;;8.18;;
5774;SDS011;2913;51.120;6.772;2023-12-07T10:53:05;22.55;;;10.35;;
5774;SDS011;2913;51.120;6.772;2023-12-07T10:55:45;15.63;;;7.95;;
5774;SDS011;2913;51.120;6.772;2023-12-07T10:58:19;17.05;;;7.57;;
5774;SDS011;2913;51.120;6.772;2023-12-07T11:00:50;13.60;;;6.90;;
5774;SDS011;2913;51.120;6.772;2023-12-07T11:03:22;19.45;;;7.65;;
5774;SDS011;2913;51.120;6.772;2023-12-07T11:05:49;14.93;;;6.10;;
5774;SDS011;2913;51.120;6.772;2023-12-07T11:08:27;11.10;;;6.30;;
5774;SDS011;2913;51.120;6.772;2023-12-07T11:14:02;19.83;;;8.95;;
5774;SDS011;2913;51.120;6.772;2023-12-07T11:16:30;8.65;;;4.35;;
5774;SDS011;2913;51.120;6.772;2023-12-07T11:18:57;13.20;;;6.28;;
5774;SDS011;2913;51.120;6.772;2023-12-07T11:21:26;17.73;;;8.57;;
5774;SDS011;2913;51.120;6.772;2023-12-07T11:23:55;20.70;;;9.23;;
5774;SDS011;2913;51.120;6.772;2023-12-07T11:26:26;15.07;;;5.97;;
5774;SDS011;2913;51.120;6.772;2023-12-07T11:28:52;19.42;;;8.57;;
5774;SDS011;2913;51.120;6.772;2023-12-07T11:31:20;15.80;;;8.07;;
5774;SDS011;2913;51.120;6.772;2023-12-07T11:36:20;11.40;;;5.25;;
5774;SDS011;2913;51.120;6.772;2023-12-07T11:39:15;18.60;;;8.30;;
5774;SDS011;2913;51.120;6.772;2023-12-07T11:41:44;16.08;;;8.60;;
5774;SDS011;2913;51.120;6.772;2023-12-07T11:44:10;15.60;;;8.02;;
5774;SDS011;2913;51.120;6.772;2023-12-07T11:46:39;23.05;;;8.68;;
5774;SDS011;2913;51.120;6.772;2023-12-07T11:49:07;16.15;;;7.47;;
5774;SDS011;2913;51.120;6.772;2023-12-07T11:51:36;13.15;;;6.13;;
5774;SDS011;2913;51.120;6.772;2023-12-07T11:54:04;14.20;;;5.60;;
5774;SDS011;2913;51.120;6.772;2023-12-07T11:56:30;10.57;;;5.72;;
5774;SDS011;2913;51.120;6.772;2023-12-07T11:58:56;10.98;;;4.93;;
5774;SDS011;2913;51.120;6.772;2023-12-07T12:01:24;16.35;;;6.03;;
5774;SDS011;2913;51.120;6.772;2023-12-07T12:03:50;11.57;;;5.40;;
5774;SDS011;2913;51.120;6.772;2023-12-07T12:06:15;10.73;;;4.00;;
5774;SDS011;2913;51.120;6.772;2023-12-07T12:08:41;9.43;;;5.38;;
5774;SDS011;2913;51.120;6.772;2023-12-07T12:11:07;23.10;;;9.48;;
5774;SDS011;2913;51.120;6.772;2023-12-07T12:13:34;21.48;;;9.85;;
5774;SDS011;2913;51.120;6.772;2023-12-07T12:16:02;14.00;;;7.25;;
5774;SDS011;2913;51.120;6.772;2023-12-07T12:18:29;18.88;;;8.93;;
5774;SDS011;2913;51.120;6.772;2023-12-07T12:20:54;13.95;;;6.47;;
5774;SDS011;2913;51.120;6.772;2023-12-07T12:23:24;6.60;;;3.78;;
5774;SDS011;2913;51.120;6.772;2023-12-07T12:25:50;22.73;;;9.32;;
5774;SDS011;2913;51.120;6.772;2023-12-07T12:28:16;15.85;;;7.50;;
5774;SDS011;2913;51.120;6.772;2023-12-07T12:30:44;9.52;;;4.20;;
5774;SDS011;2913;51.120;6.772;2023-12-07T12:33:10;18.88;;;9.40;;
5774;SDS011;2913;51.120;6.772;2023-12-07T12:35:37;15.30;;;8.10;;
5774;SDS011;2913;51.120;6.772;2023-12-07T12:38:03;15.93;;;6.20;;
5774;SDS011;2913;51.120;6.772;2023-12-07T12:40:36;11.15;;;5.03;;
5774;SDS011;2913;51.120;6.772;2023-12-07T12:43:02;16.67;;;6.13;;
5774;SDS011;2913;51.120;6.772;2023-12-07T12:45:28;13.82;;;6.15;;
5774;SDS011;2913;51.120;6.772;2023-12-07T12:47:56;8.57;;;3.78;;
5774;SDS011;2913;51.120;6.772;2023-12-07T12:50:32;18.45;;;9.02;;
5774;SDS011;2913;51.120;6.772;2023-12-07T12:53:02;17.70;;;8.35;;
5774;SDS011;2913;51.120;6.772;2023-12-07T12:55:38;12.85;;;5.93;;
5774;SDS011;2913;51.120;6.772;2023-12-07T12:58:08;14.25;;;3.85;;
5774;SDS011;2913;51.120;6.772;2023-12-07T13:00:38;17.27;;;7.47;;
5774;SDS011;2913;51.120;6.772;2023-12-07T13:03:05;16.42;;;7.30;;
5774;SDS011;2913;51.120;6.772;2023-12-07T13:05:31;9.52;;;4.72;;
5774;SDS011;2913;51.120;6.772;2023-12-07T13:07:58;4.13;;;2.50;;
5774;SDS011;2913;51.120;6.772;2023-12-07T13:10:26;16.63;;;7.60;;
5774;SDS011;2913;51.120;6.772;2023-12-07T13:12:57;6.88;;;3.63;;
5774;SDS011;2913;51.120;6.772;2023-12-07T13:15:23;18.08;;;7.85;;
5774;SDS011;2913;51.120;6.772;2023-12-07T13:17:57;11.90;;;4.95;;
5774;SDS011;2913;51.120;6.772;2023-12-07T13:20:22;6.45;;;3.55;;
5774;SDS011;2913;51.120;6.772;2023-12-07T13:22:48;7.63;;;3.83;;
5774;SDS011;2913;51.120;6.772;2023-12-07T13:25:16;11.15;;;5.55;;
5774;SDS011;2913;51.120;6.772;2023-12-07T13:27:44;7.20;;;4.10;;
5774;SDS011;2913;51.120;6.772;2023-12-07T13:30:12;15.20;;;6.90;;
5774;SDS011;2913;51.120;6.772;2023-12-07T13:32:38;14.52;;;5.50;;
5774;SDS011;2913;51.120;6.772;2023-12-07T13:35:06;23.92;;;7.45;;
5774;SDS011;2913;51.120;6.772;2023-12-07T13:37:35;9.40;;;4.10;;
5774;SDS011;2913;51.120;6.772;2023-12-07T13:40:03;15.50;;;7.93;;
5774;SDS011;2913;51.120;6.772;2023-12-07T13:42:32;7.93;;;3.53;;
5774;SDS011;2913;51.120;6.772;2023-12-07T13:44:58;8.02;;;3.90;;
5774;SDS011;2913;51.120;6.772;2023-12-07T13:47:27;11.55;;;4.28;;
5774;SDS011;2913;51.120;6.772;2023-12-07T13:49:59;9.10;;;4.38;;
5774;SDS011;2913;51.120;6.772;2023-12-07T13:52:25;9.48;;;4.25;;
5774;SDS011;2913;51.120;6.772;2023-12-07T13:54:52;6.25;;;3.70;;
5774;SDS011;2913;51.120;6.772;2023-12-07T13:57:20;10.07;;;5.22;;
5774;SDS011;2913;51.120;6.772;2023-12-07T13:59:49;5.80;;;3.40;;
5774;SDS011;2913;51.120;6.772;2023-12-07T14:02:15;13.20;;;5.72;;
5774;SDS011;2913;51.120;6.772;2023-12-07T14:04:44;5.05;;;3.17;;
5774;SDS011;2913;51.120;6.772;2023-12-07T14:07:14;11.95;;;5.90;;
5774;SDS011;2913;51.120;6.772;2023-12-07T14:09:43;10.38;;;5.60;;
5774;SDS011;2913;51.120;6.772;2023-12-07T14:12:12;15.57;;;6.53;;
5774;SDS011;2913;51.120;6.772;2023-12-07T14:14:40;14.98;;;6.85;;
5774;SDS011;2913;51.120;6.772;2023-12-07T14:17:06;6.97;;;3.90;;
5774;SDS011;2913;51.120;6.772;2023-12-07T14:19:34;19.75;;;7.43;;
5774;SDS011;2913;51.120;6.772;2023-12-07T14:22:03;14.55;;;5.30;;
5774;SDS011;2913;51.120;6.772;2023-12-07T14:24:29;8.75;;;3.65;;
5774;SDS011;2913;51.120;6.772;2023-12-07T14:26:57;15.50;;;5.47;;
5774;SDS011;2913;51.120;6.772;2023-12-07T14:29:23;7.13;;;2.75;;
5774;SDS011;2913;51.120;6.772;2023-12-07T14:31:51;11.82;;;4.50;;
5774;SDS011;2913;51.120;6.772;2023-12-07T14:34:19;10.55;;;5.25;;
5774;SDS011;2913;51.120;6.772;2023-12-07T14:36:45;8.18;;;4.68;;
5774;SDS011;2913;51.120;6.772;2023-12-07T14:39:11;7.70;;;3.63;;
5774;SDS011;2913;51.120;6.772;2023-12-07T14:41:44;3.58;;;2.17;;
5774;SDS011;2913;51.120;6.772;2023-12-07T14:44:13;6.53;;;3.47;;
5774;SDS011;2913;51.120;6.772;2023-12-07T14:46:43;10.82;;;4.50;;
5774;SDS011;2913;51.120;6.772;2023-12-07T14:49:13;8.55;;;3.80;;
5774;SDS011;2913;51.120;6.772;2023-12-07T14:51:40;10.32;;;4.15;;
5774;SDS011;2913;51.120;6.772;2023-12-07T14:54:08;7.85;;;4.35;;
5774;SDS011;2913;51.120;6.772;2023-12-07T14:56:36;5.63;;;2.63;;
5774;SDS011;2913;51.120;6.772;2023-12-07T14:59:08;6.82;;;4.35;;